sensor_id;sensor_type;location;lat;lon;timestamp;pressure;altitude;pressure_sealevel;temperature;humidity
26487;BME280;14425;56.136;40.360;2023-04-26T00:00:42;98188.34;;;12.01;100.00
26487;BME280;14425;56.136;40.360;2023-04-26T00:03:07;98191.84;;;12.02;100.00
26487;BME280;14425;56.136;40.360;2023-04-26T00:05:33;98191.84;;;12.02;100.00
26487;BME280;14425;56.136;40.360;2023-04-26T00:08:00;98189.97;;;11.86;100.00
26487;BME280;14425;56.136;40.360;2023-04-26T00:10:25;98182.31;;;11.98;100.00
26487;BME280;14425;56.136;40.360;2023-04-26T00:12:51;98184.03;;;11.96;100.00
26487;BME280;14425;56.136;40.360;2023-04-26T00:15:17;98187.44;;;11.92;100.00
26487;BME280;14425;56.136;40.360;2023-04-26T00:17:42;98181.34;;;11.88;100.00
26487;BME280;14425;56.136;40.360;2023-04-26T00:20:09;98174.53;;;11.95;100.00
26487;BME280;14425;56.136;40.360;2023-04-26T00:22:36;98159.38;;;12.67;100.00
26487;BME280;14425;56.136;40.360;2023-04-26T00:25:02;98166.25;;;12.70;100.00
26487;BME280;14425;56.136;40.360;2023-04-26T00:27:29;98161.06;;;12.56;100.00
26487;BME280;14425;56.136;40.360;2023-04-26T00:29:55;98161.84;;;12.38;100.00
26487;BME280;14425;56.136;40.360;2023-04-26T00:32:20;98162.75;;;12.51;100.00
26487;BME280;14425;56.136;40.360;2023-04-26T00:34:46;98167.09;;;12.50;100.00
26487;BME280;14425;56.136;40.360;2023-04-26T00:37:11;98158.47;;;12.56;100.00
26487;BME280;14425;56.136;40.360;2023-04-26T00:39:37;98157.66;;;12.72;100.00
26487;BME280;14425;56.136;40.360;2023-04-26T00:42:03;98143.94;;;12.97;100.00
26487;BME280;14425;56.136;40.360;2023-04-26T00:44:28;98149.84;;;12.54;100.00
26487;BME280;14425;56.136;40.360;2023-04-26T00:46:54;98151.50;;;12.32;100.00
26487;BME280;14425;56.136;40.360;2023-04-26T00:49:23;98147.19;;;12.31;100.00
26487;BME280;14425;56.136;40.360;2023-04-26T00:51:51;98148.09;;;12.51;100.00
26487;BME280;14425;56.136;40.360;2023-04-26T00:54:18;98151.53;;;12.44;100.00
26487;BME280;14425;56.136;40.360;2023-04-26T00:56:44;98143.00;;;12.62;100.00
26487;BME280;14425;56.136;40.360;2023-04-26T00:59:10;98136.94;;;12.59;100.00
26487;BME280;14425;56.136;40.360;2023-04-26T01:01:35;98130.91;;;12.63;100.00
26487;BME280;14425;56.136;40.360;2023-04-26T01:04:02;98128.28;;;12.56;100.00
26487;BME280;14425;56.136;40.360;2023-04-26T01:06:32;98127.34;;;12.28;100.00
26487;BME280;14425;56.136;40.360;2023-04-26T01:09:00;98126.44;;;12.18;100.00
26487;BME280;14425;56.136;40.360;2023-04-26T01:11:28;98122.97;;;12.10;100.00
26487;BME280;14425;56.136;40.360;2023-04-26T01:13:55;98122.97;;;12.10;100.00
26487;BME280;14425;56.136;40.360;2023-04-26T01:16:21;98122.97;;;12.10;100.00
26487;BME280;14425;56.136;40.360;2023-04-26T01:18:51;98122.97;;;12.10;100.00
26487;BME280;14425;56.136;40.360;2023-04-26T01:21:20;98122.97;;;12.10;100.00
26487;BME280;14425;56.136;40.360;2023-04-26T01:23:50;98122.97;;;12.10;100.00
26487;BME280;14425;56.136;40.360;2023-04-26T01:26:16;98122.97;;;12.10;100.00
26487;BME280;14425;56.136;40.360;2023-04-26T01:28:42;98122.97;;;12.10;100.00
26487;BME280;14425;56.136;40.360;2023-04-26T01:31:09;98122.97;;;12.10;100.00
26487;BME280;14425;56.136;40.360;2023-04-26T01:33:34;98122.97;;;12.10;100.00
26487;BME280;14425;56.136;40.360;2023-04-26T01:36:00;98122.97;;;12.10;100.00
26487;BME280;14425;56.136;40.360;2023-04-26T01:38:25;98122.97;;;12.10;100.00
26487;BME280;14425;56.136;40.360;2023-04-26T01:40:51;98080.84;;;12.37;100.00
26487;BME280;14425;56.136;40.360;2023-04-26T01:43:16;98080.84;;;12.37;100.00
26487;BME280;14425;56.136;40.360;2023-04-26T01:45:47;98080.84;;;12.37;100.00
26487;BME280;14425;56.136;40.360;2023-04-26T01:48:12;98081.72;;;12.41;100.00
26487;BME280;14425;56.136;40.360;2023-04-26T01:50:38;98079.16;;;12.56;100.00
26487;BME280;14425;56.136;40.360;2023-04-26T01:53:03;98083.50;;;12.70;100.00
26487;BME280;14425;56.136;40.360;2023-04-26T01:55:29;98070.53;;;12.41;100.00
26487;BME280;14425;56.136;40.360;2023-04-26T01:57:55;98080.78;;;12.14;100.00
26487;BME280;14425;56.136;40.360;2023-04-26T02:00:20;98080.78;;;12.14;100.00
26487;BME280;14425;56.136;40.360;2023-04-26T02:02:46;98080.78;;;12.14;100.00
26487;BME280;14425;56.136;40.360;2023-04-26T02:05:12;98080.78;;;12.14;100.00
26487;BME280;14425;56.136;40.360;2023-04-26T02:07:37;98072.25;;;12.43;100.00
26487;BME280;14425;56.136;40.360;2023-04-26T02:10:03;98072.25;;;12.43;100.00
26487;BME280;14425;56.136;40.360;2023-04-26T02:12:31;98065.22;;;12.02;100.00
26487;BME280;14425;56.136;40.360;2023-04-26T02:14:58;98060.94;;;12.13;100.00
26487;BME280;14425;56.136;40.360;2023-04-26T02:17:34;98060.94;;;12.13;100.00
26487;BME280;14425;56.136;40.360;2023-04-26T02:19:59;98056.66;;;12.15;100.00
26487;BME280;14425;56.136;40.360;2023-04-26T02:22:25;98064.34;;;12.01;100.00
26487;BME280;14425;56.136;40.360;2023-04-26T02:24:51;98064.34;;;12.01;100.00
26487;BME280;14425;56.136;40.360;2023-04-26T02:27:17;98064.34;;;12.01;100.00
26487;BME280;14425;56.136;40.360;2023-04-26T02:29:43;98053.97;;;11.92;100.00
26487;BME280;14425;56.136;40.360;2023-04-26T02:32:09;98050.69;;;12.29;100.00
26487;BME280;14425;56.136;40.360;2023-04-26T02:34:34;98047.25;;;12.42;100.00
26487;BME280;14425;56.136;40.360;2023-04-26T02:37:00;98041.16;;;12.25;100.00
26487;BME280;14425;56.136;40.360;2023-04-26T02:39:26;98041.16;;;12.25;100.00
26487;BME280;14425;56.136;40.360;2023-04-26T02:41:51;98041.88;;;11.90;100.00
26487;BME280;14425;56.136;40.360;2023-04-26T02:44:17;98046.28;;;12.08;100.00
26487;BME280;14425;56.136;40.360;2023-04-26T02:46:42;98046.28;;;12.08;100.00
26487;BME280;14425;56.136;40.360;2023-04-26T02:49:08;98046.28;;;12.08;100.00
26487;BME280;14425;56.136;40.360;2023-04-26T02:51:33;98045.31;;;11.86;100.00
26487;BME280;14425;56.136;40.360;2023-04-26T02:53:59;98045.31;;;11.86;100.00
26487;BME280;14425;56.136;40.360;2023-04-26T02:56:24;98045.31;;;11.86;100.00
26487;BME280;14425;56.136;40.360;2023-04-26T02:58:50;98045.31;;;11.86;100.00
26487;BME280;14425;56.136;40.360;2023-04-26T03:01:16;98045.31;;;11.86;100.00
26487;BME280;14425;56.136;40.360;2023-04-26T03:03:42;98045.31;;;11.86;100.00
26487;BME280;14425;56.136;40.360;2023-04-26T03:06:08;98035.78;;;11.78;100.00
26487;BME280;14425;56.136;40.360;2023-04-26T03:08:34;98031.59;;;11.94;100.00
26487;BME280;14425;56.136;40.360;2023-04-26T03:11:01;98033.34;;;12.05;100.00
26487;BME280;14425;56.136;40.360;2023-04-26T03:13:27;98032.38;;;11.84;100.00
26487;BME280;14425;56.136;40.360;2023-04-26T03:15:52;98025.47;;;11.81;100.00
26487;BME280;14425;56.136;40.360;2023-04-26T03:18:18;98025.47;;;11.81;100.00
26487;BME280;14425;56.136;40.360;2023-04-26T03:20:47;98025.44;;;11.75;100.00
26487;BME280;14425;56.136;40.360;2023-04-26T03:23:12;98023.66;;;11.62;100.00
26487;BME280;14425;56.136;40.360;2023-04-26T03:25:38;98023.66;;;11.62;100.00
26487;BME280;14425;56.136;40.360;2023-04-26T03:28:04;98023.69;;;11.67;100.00
26487;BME280;14425;56.136;40.360;2023-04-26T03:30:29;98020.28;;;11.75;100.00
26487;BME280;14425;56.136;40.360;2023-04-26T03:32:55;98010.72;;;11.54;100.00
26487;BME280;14425;56.136;40.360;2023-04-26T03:35:21;98011.72;;;11.82;100.00
26487;BME280;14425;56.136;40.360;2023-04-26T03:37:47;98016.91;;;11.87;100.00
26487;BME280;14425;56.136;40.360;2023-04-26T03:40:12;98007.38;;;11.77;100.00
26487;BME280;14425;56.136;40.360;2023-04-26T03:42:38;98001.31;;;11.62;100.00
26487;BME280;14425;56.136;40.360;2023-04-26T03:45:04;98001.31;;;11.62;100.00
26487;BME280;14425;56.136;40.360;2023-04-26T03:47:33;97999.53;;;11.52;100.00
26487;BME280;14425;56.136;40.360;2023-04-26T03:49:58;97992.69;;;11.59;100.00
26487;BME280;14425;56.136;40.360;2023-04-26T03:52:24;97991.78;;;11.58;100.00
26487;BME280;14425;56.136;40.360;2023-04-26T03:54:50;97991.78;;;11.58;100.00
26487;BME280;14425;56.136;40.360;2023-04-26T03:57:15;97991.78;;;11.58;100.00
26487;BME280;14425;56.136;40.360;2023-04-26T03:59:41;97991.78;;;11.58;100.00
26487;BME280;14425;56.136;40.360;2023-04-26T04:02:06;97991.78;;;11.58;100.00
26487;BME280;14425;56.136;40.360;2023-04-26T04:04:32;97991.78;;;11.58;100.00
26487;BME280;14425;56.136;40.360;2023-04-26T04:06:58;97991.78;;;11.58;100.00
26487;BME280;14425;56.136;40.360;2023-04-26T04:09:23;97991.78;;;11.58;100.00
26487;BME280;14425;56.136;40.360;2023-04-26T04:11:49;97991.78;;;11.58;100.00
26487;BME280;14425;56.136;40.360;2023-04-26T04:14:15;97988.28;;;11.39;100.00
26487;BME280;14425;56.136;40.360;2023-04-26T04:16:40;97988.28;;;11.39;100.00
26487;BME280;14425;56.136;40.360;2023-04-26T04:19:06;97981.47;;;11.51;100.00
26487;BME280;14425;56.136;40.360;2023-04-26T04:21:31;97981.47;;;11.51;100.00
26487;BME280;14425;56.136;40.360;2023-04-26T04:23:57;97981.47;;;11.51;100.00
26487;BME280;14425;56.136;40.360;2023-04-26T04:26:22;97981.47;;;11.51;100.00
26487;BME280;14425;56.136;40.360;2023-04-26T04:28:48;97981.47;;;11.51;100.00
26487;BME280;14425;56.136;40.360;2023-04-26T04:31:13;97981.47;;;11.51;100.00
26487;BME280;14425;56.136;40.360;2023-04-26T04:33:39;97981.47;;;11.51;100.00
26487;BME280;14425;56.136;40.360;2023-04-26T04:36:05;97981.47;;;11.51;100.00
26487;BME280;14425;56.136;40.360;2023-04-26T04:38:31;97981.47;;;11.51;100.00
26487;BME280;14425;56.136;40.360;2023-04-26T04:40:57;97981.47;;;11.51;100.00
26487;BME280;14425;56.136;40.360;2023-04-26T04:43:23;97981.47;;;11.51;100.00
26487;BME280;14425;56.136;40.360;2023-04-26T04:45:48;97981.47;;;11.51;100.00
26487;BME280;14425;56.136;40.360;2023-04-26T04:48:14;97966.94;;;11.87;100.00
26487;BME280;14425;56.136;40.360;2023-04-26T04:50:40;97966.94;;;11.87;100.00
26487;BME280;14425;56.136;40.360;2023-04-26T04:53:09;97969.66;;;12.20;100.00
26487;BME280;14425;56.136;40.360;2023-04-26T04:55:34;97969.66;;;12.20;100.00
26487;BME280;14425;56.136;40.360;2023-04-26T04:58:02;97961.88;;;12.08;100.00
26487;BME280;14425;56.136;40.360;2023-04-26T05:00:28;97961.88;;;12.08;100.00
26487;BME280;14425;56.136;40.360;2023-04-26T05:02:54;97961.88;;;12.08;100.00
26487;BME280;14425;56.136;40.360;2023-04-26T05:05:21;97965.38;;;12.39;100.00
26487;BME280;14425;56.136;40.360;2023-04-26T05:07:47;97965.38;;;12.39;100.00
26487;BME280;14425;56.136;40.360;2023-04-26T05:10:12;97965.38;;;12.39;100.00
26487;BME280;14425;56.136;40.360;2023-04-26T05:12:38;97959.28;;;12.07;100.00
26487;BME280;14425;56.136;40.360;2023-04-26T05:15:04;97960.16;;;12.16;100.00
26487;BME280;14425;56.136;40.360;2023-04-26T05:17:33;97960.16;;;12.16;100.00
26487;BME280;14425;56.136;40.360;2023-04-26T05:19:58;97958.41;;;12.03;100.00
26487;BME280;14425;56.136;40.360;2023-04-26T05:22:25;97955.00;;;12.10;100.00
26487;BME280;14425;56.136;40.360;2023-04-26T05:24:51;97950.72;;;12.14;100.00
26487;BME280;14425;56.136;40.360;2023-04-26T05:27:16;97950.72;;;12.14;100.00
26487;BME280;14425;56.136;40.360;2023-04-26T05:29:42;97950.72;;;12.14;100.00
26487;BME280;14425;56.136;40.360;2023-04-26T05:32:08;97950.72;;;12.14;100.00
26487;BME280;14425;56.136;40.360;2023-04-26T05:34:33;97950.72;;;12.14;100.00
26487;BME280;14425;56.136;40.360;2023-04-26T05:36:59;97950.72;;;12.14;100.00
26487;BME280;14425;56.136;40.360;2023-04-26T05:39:25;97950.72;;;12.14;100.00
26487;BME280;14425;56.136;40.360;2023-04-26T05:41:51;97950.72;;;12.14;100.00
26487;BME280;14425;56.136;40.360;2023-04-26T05:44:16;97950.72;;;12.14;100.00
26487;BME280;14425;56.136;40.360;2023-04-26T05:46:42;97955.00;;;12.19;100.00
26487;BME280;14425;56.136;40.360;2023-04-26T05:49:07;97955.00;;;12.19;100.00
26487;BME280;14425;56.136;40.360;2023-04-26T05:51:33;97948.16;;;12.35;100.00
26487;BME280;14425;56.136;40.360;2023-04-26T05:53:58;97948.16;;;12.35;100.00
26487;BME280;14425;56.136;40.360;2023-04-26T05:56:24;97948.16;;;12.35;100.00
26487;BME280;14425;56.136;40.360;2023-04-26T05:58:51;97948.16;;;12.35;100.00
26487;BME280;14425;56.136;40.360;2023-04-26T06:01:17;97948.16;;;12.35;100.00
26487;BME280;14425;56.136;40.360;2023-04-26T06:03:46;97950.69;;;12.06;100.00
26487;BME280;14425;56.136;40.360;2023-04-26T06:06:11;97942.94;;;12.23;100.00
26487;BME280;14425;56.136;40.360;2023-04-26T06:08:37;97942.94;;;12.23;100.00
26487;BME280;14425;56.136;40.360;2023-04-26T06:11:03;97942.94;;;12.23;100.00
26487;BME280;14425;56.136;40.360;2023-04-26T06:13:29;97942.94;;;12.23;100.00
26487;BME280;14425;56.136;40.360;2023-04-26T06:15:55;97936.06;;;12.74;100.00
26487;BME280;14425;56.136;40.360;2023-04-26T06:18:21;97948.16;;;12.82;100.00
26487;BME280;14425;56.136;40.360;2023-04-26T06:20:46;97949.88;;;12.81;100.00
26487;BME280;14425;56.136;40.360;2023-04-26T06:23:12;97949.88;;;12.81;100.00
26487;BME280;14425;56.136;40.360;2023-04-26T06:25:38;97949.88;;;12.81;100.00
26487;BME280;14425;56.136;40.360;2023-04-26T06:28:08;97948.16;;;12.75;100.00
26487;BME280;14425;56.136;40.360;2023-04-26T06:30:33;97949.00;;;12.91;100.00
26487;BME280;14425;56.136;40.360;2023-04-26T06:32:59;97945.59;;;12.57;100.00
26487;BME280;14425;56.136;40.360;2023-04-26T06:35:25;97941.25;;;12.57;100.00
26487;BME280;14425;56.136;40.360;2023-04-26T06:37:50;97945.56;;;12.54;100.00
26487;BME280;14425;56.136;40.360;2023-04-26T06:40:16;97945.56;;;12.54;100.00
26487;BME280;14425;56.136;40.360;2023-04-26T06:42:42;97941.28;;;12.65;100.00
26487;BME280;14425;56.136;40.360;2023-04-26T06:45:08;97941.28;;;12.65;100.00
26487;BME280;14425;56.136;40.360;2023-04-26T06:47:34;97949.88;;;12.66;100.00
26487;BME280;14425;56.136;40.360;2023-04-26T06:49:59;97949.88;;;12.66;100.00
26487;BME280;14425;56.136;40.360;2023-04-26T06:52:25;97949.88;;;12.66;100.00
26487;BME280;14425;56.136;40.360;2023-04-26T06:54:50;97947.31;;;12.70;100.00
26487;BME280;14425;56.136;40.360;2023-04-26T06:57:16;97953.31;;;12.65;100.00
26487;BME280;14425;56.136;40.360;2023-04-26T06:59:42;97947.31;;;12.75;100.00
26487;BME280;14425;56.136;40.360;2023-04-26T07:02:07;97947.31;;;12.75;100.00
26487;BME280;14425;56.136;40.360;2023-04-26T07:04:33;97957.66;;;12.73;100.00
26487;BME280;14425;56.136;40.360;2023-04-26T07:06:58;97953.31;;;12.63;100.00
26487;BME280;14425;56.136;40.360;2023-04-26T07:09:24;97950.75;;;12.49;100.00
26487;BME280;14425;56.136;40.360;2023-04-26T07:11:49;97950.75;;;12.49;100.00
26487;BME280;14425;56.136;40.360;2023-04-26T07:14:15;97956.75;;;12.25;100.00
26487;BME280;14425;56.136;40.360;2023-04-26T07:16:41;97956.75;;;12.25;100.00
26487;BME280;14425;56.136;40.360;2023-04-26T07:19:06;97956.75;;;12.25;100.00
26487;BME280;14425;56.136;40.360;2023-04-26T07:21:32;97956.75;;;12.25;100.00
26487;BME280;14425;56.136;40.360;2023-04-26T07:23:58;97956.75;;;12.25;100.00
26487;BME280;14425;56.136;40.360;2023-04-26T07:26:24;97956.75;;;12.25;100.00
26487;BME280;14425;56.136;40.360;2023-04-26T07:28:54;97956.75;;;12.25;100.00
26487;BME280;14425;56.136;40.360;2023-04-26T07:31:19;97956.75;;;12.25;100.00
26487;BME280;14425;56.136;40.360;2023-04-26T07:33:45;97956.75;;;12.25;100.00
26487;BME280;14425;56.136;40.360;2023-04-26T07:36:11;97956.75;;;12.25;100.00
26487;BME280;14425;56.136;40.360;2023-04-26T07:38:36;97956.75;;;12.25;100.00
26487;BME280;14425;56.136;40.360;2023-04-26T07:41:02;97956.75;;;12.25;100.00
26487;BME280;14425;56.136;40.360;2023-04-26T07:43:29;97948.09;;;13.17;100.00
26487;BME280;14425;56.136;40.360;2023-04-26T07:45:58;97948.06;;;13.39;100.00
26487;BME280;14425;56.136;40.360;2023-04-26T07:48:24;97941.91;;;13.66;100.00
26487;BME280;14425;56.136;40.360;2023-04-26T07:50:49;97943.75;;;13.47;100.00
26487;BME280;14425;56.136;40.360;2023-04-26T07:53:16;97943.59;;;13.78;100.00
26487;BME280;14425;56.136;40.360;2023-04-26T07:55:41;97943.59;;;13.78;100.00
26487;BME280;14425;56.136;40.360;2023-04-26T07:58:07;97938.88;;;14.48;100.00
26487;BME280;14425;56.136;40.360;2023-04-26T08:00:33;97943.31;;;14.30;100.00
26487;BME280;14425;56.136;40.360;2023-04-26T08:03:02;97942.66;;;15.10;100.00
26487;BME280;14425;56.136;40.360;2023-04-26T08:05:28;97940.16;;;15.01;100.00
26487;BME280;14425;56.136;40.360;2023-04-26T08:07:53;97934.81;;;15.17;100.00
26487;BME280;14425;56.136;40.360;2023-04-26T08:10:19;97934.81;;;15.17;100.00
26487;BME280;14425;56.136;40.360;2023-04-26T08:12:46;97934.81;;;15.17;100.00
26487;BME280;14425;56.136;40.360;2023-04-26T08:15:12;97927.81;;;16.55;100.00
26487;BME280;14425;56.136;40.360;2023-04-26T08:17:38;97927.81;;;16.55;100.00
26487;BME280;14425;56.136;40.360;2023-04-26T08:20:04;97927.81;;;16.55;100.00
26487;BME280;14425;56.136;40.360;2023-04-26T08:22:33;97927.81;;;16.55;100.00
26487;BME280;14425;56.136;40.360;2023-04-26T08:24:59;97927.81;;;16.55;100.00
26487;BME280;14425;56.136;40.360;2023-04-26T08:27:25;97928.00;;;18.27;78.71
26487;BME280;14425;56.136;40.360;2023-04-26T08:29:50;97931.31;;;17.52;84.01
26487;BME280;14425;56.136;40.360;2023-04-26T08:32:16;97931.31;;;17.52;84.01
26487;BME280;14425;56.136;40.360;2023-04-26T08:34:41;97931.31;;;17.52;84.01
26487;BME280;14425;56.136;40.360;2023-04-26T08:37:07;97931.31;;;17.52;84.01
26487;BME280;14425;56.136;40.360;2023-04-26T08:39:32;97931.31;;;17.52;84.01
26487;BME280;14425;56.136;40.360;2023-04-26T08:42:04;97931.31;;;17.52;84.01
26487;BME280;14425;56.136;40.360;2023-04-26T08:44:33;97931.31;;;17.52;84.01
26487;BME280;14425;56.136;40.360;2023-04-26T08:47:05;97931.31;;;17.52;84.01
26487;BME280;14425;56.136;40.360;2023-04-26T08:49:41;97931.31;;;17.52;84.01
26487;BME280;14425;56.136;40.360;2023-04-26T08:52:09;97931.31;;;17.52;84.01
26487;BME280;14425;56.136;40.360;2023-04-26T08:54:39;97931.31;;;17.52;84.01
26487;BME280;14425;56.136;40.360;2023-04-26T08:57:05;97931.31;;;17.52;84.01
26487;BME280;14425;56.136;40.360;2023-04-26T08:59:34;97931.31;;;17.52;84.01
26487;BME280;14425;56.136;40.360;2023-04-26T09:02:05;97931.31;;;17.52;84.01
26487;BME280;14425;56.136;40.360;2023-04-26T09:04:31;97923.13;;;14.72;100.00
26487;BME280;14425;56.136;40.360;2023-04-26T09:07:00;97924.34;;;15.26;100.00
26487;BME280;14425;56.136;40.360;2023-04-26T09:09:34;97926.97;;;15.23;100.00
26487;BME280;14425;56.136;40.360;2023-04-26T09:12:02;97925.81;;;14.63;100.00
26487;BME280;14425;56.136;40.360;2023-04-26T09:14:28;97927.72;;;14.35;100.00
26487;BME280;14425;56.136;40.360;2023-04-26T09:16:54;97922.56;;;14.29;100.00
26487;BME280;14425;56.136;40.360;2023-04-26T09:19:39;97927.03;;;14.13;100.00
26487;BME280;14425;56.136;40.360;2023-04-26T09:22:07;97925.44;;;13.85;100.00
26487;BME280;14425;56.136;40.360;2023-04-26T09:24:49;97933.38;;;13.42;100.00
26487;BME280;14425;56.136;40.360;2023-04-26T09:27:15;97925.63;;;13.35;100.00
26487;BME280;14425;56.136;40.360;2023-04-26T09:29:56;97931.69;;;13.34;100.00
26487;BME280;14425;56.136;40.360;2023-04-26T09:32:22;97923.88;;;13.49;100.00
26487;BME280;14425;56.136;40.360;2023-04-26T09:34:49;97923.88;;;13.49;100.00
26487;BME280;14425;56.136;40.360;2023-04-26T09:37:14;97923.88;;;13.49;100.00
26487;BME280;14425;56.136;40.360;2023-04-26T09:39:41;97911.66;;;13.74;100.00
26487;BME280;14425;56.136;40.360;2023-04-26T09:42:08;97918.66;;;13.61;100.00
26487;BME280;14425;56.136;40.360;2023-04-26T09:44:34;97923.84;;;13.55;100.00
26487;BME280;14425;56.136;40.360;2023-04-26T09:47:03;97922.97;;;13.59;100.00
26487;BME280;14425;56.136;40.360;2023-04-26T09:49:47;97921.19;;;13.64;100.00
26487;BME280;14425;56.136;40.360;2023-04-26T09:52:15;97925.44;;;13.84;100.00
26487;BME280;14425;56.136;40.360;2023-04-26T09:54:52;97920.25;;;13.84;100.00
26487;BME280;14425;56.136;40.360;2023-04-26T09:57:20;97926.31;;;13.81;100.00
26487;BME280;14425;56.136;40.360;2023-04-26T09:59:47;97925.41;;;13.90;100.00
26487;BME280;14425;56.136;40.360;2023-04-26T10:02:36;97936.69;;;13.80;100.00
26487;BME280;14425;56.136;40.360;2023-04-26T10:05:09;97926.16;;;14.06;100.00
26487;BME280;14425;56.136;40.360;2023-04-26T10:07:38;97926.75;;;14.47;100.00
26487;BME280;14425;56.136;40.360;2023-04-26T10:10:06;97927.91;;;15.14;100.00
26487;BME280;14425;56.136;40.360;2023-04-26T10:12:35;97916.94;;;15.63;100.00
26487;BME280;14425;56.136;40.360;2023-04-26T10:15:04;97923.22;;;16.15;100.00
26487;BME280;14425;56.136;40.360;2023-04-26T10:17:33;97918.47;;;16.95;100.00
26487;BME280;14425;56.136;40.360;2023-04-26T10:20:12;97914.16;;;16.95;100.00
26487;BME280;14425;56.136;40.360;2023-04-26T10:22:51;97929.69;;;17.47;99.64
26487;BME280;14425;56.136;40.360;2023-04-26T10:25:33;97929.25;;;17.68;95.14
26487;BME280;14425;56.136;40.360;2023-04-26T10:31:10;97923.16;;;18.10;84.98
26487;BME280;14425;56.136;40.360;2023-04-26T10:33:37;97935.88;;;18.24;82.81
26487;BME280;14425;56.136;40.360;2023-04-26T10:41:50;97945.25;;;18.33;82.16
26487;BME280;14425;56.136;40.360;2023-04-26T10:44:43;97946.03;;;17.99;85.41
26487;BME280;14425;56.136;40.360;2023-04-26T10:47:22;97957.69;;;17.35;88.61
26487;BME280;14425;56.136;40.360;2023-04-26T10:49:48;97964.00;;;16.12;95.11
26487;BME280;14425;56.136;40.360;2023-04-26T10:52:19;97965.34;;;15.72;100.00
26487;BME280;14425;56.136;40.360;2023-04-26T10:57:21;97971.22;;;15.10;100.00
26487;BME280;14425;56.136;40.360;2023-04-26T11:02:56;97975.19;;;14.48;100.00
26487;BME280;14425;56.136;40.360;2023-04-26T11:05:49;97970.13;;;14.26;100.00
26487;BME280;14425;56.136;40.360;2023-04-26T11:08:20;97972.63;;;14.38;100.00
26487;BME280;14425;56.136;40.360;2023-04-26T11:10:50;97971.88;;;14.21;100.00
26487;BME280;14425;56.136;40.360;2023-04-26T11:13:17;97978.78;;;14.20;100.00
26487;BME280;14425;56.136;40.360;2023-04-26T11:15:44;97985.88;;;13.89;100.00
26487;BME280;14425;56.136;40.360;2023-04-26T11:18:10;97986.78;;;13.76;100.00
26487;BME280;14425;56.136;40.360;2023-04-26T11:20:36;97986.00;;;13.55;100.00
26487;BME280;14425;56.136;40.360;2023-04-26T11:23:02;97979.16;;;13.37;100.00
26487;BME280;14425;56.136;40.360;2023-04-26T11:25:28;97986.06;;;13.40;100.00
26487;BME280;14425;56.136;40.360;2023-04-26T11:28:01;97990.34;;;13.39;100.00
26487;BME280;14425;56.136;40.360;2023-04-26T11:30:32;97988.63;;;13.46;100.00
26487;BME280;14425;56.136;40.360;2023-04-26T11:32:59;97993.84;;;13.40;100.00
26487;BME280;14425;56.136;40.360;2023-04-26T11:35:25;97999.00;;;13.40;100.00
26487;BME280;14425;56.136;40.360;2023-04-26T11:37:52;97992.94;;;13.50;100.00
26487;BME280;14425;56.136;40.360;2023-04-26T11:40:18;97987.69;;;13.68;100.00
26487;BME280;14425;56.136;40.360;2023-04-26T11:42:46;97991.94;;;13.86;100.00
26487;BME280;14425;56.136;40.360;2023-04-26T11:45:14;97991.94;;;13.86;100.00
26487;BME280;14425;56.136;40.360;2023-04-26T11:47:41;98007.13;;;14.56;100.00
26487;BME280;14425;56.136;40.360;2023-04-26T11:50:07;98001.03;;;14.62;100.00
26487;BME280;14425;56.136;40.360;2023-04-26T11:52:37;98011.03;;;13.58;100.00
26487;BME280;14425;56.136;40.360;2023-04-26T11:55:04;98008.47;;;13.35;100.00
26487;BME280;14425;56.136;40.360;2023-04-26T11:57:33;98007.59;;;13.28;100.00
26487;BME280;14425;56.136;40.360;2023-04-26T12:00:14;98008.47;;;13.19;100.00
26487;BME280;14425;56.136;40.360;2023-04-26T12:02:47;98014.53;;;13.18;100.00
26487;BME280;14425;56.136;40.360;2023-04-26T12:05:39;98015.41;;;13.11;100.00
26487;BME280;14425;56.136;40.360;2023-04-26T12:08:05;98015.41;;;13.11;100.00
26487;BME280;14425;56.136;40.360;2023-04-26T12:10:35;98022.31;;;12.92;100.00
26487;BME280;14425;56.136;40.360;2023-04-26T12:13:04;98030.94;;;12.96;100.00
26487;BME280;14425;56.136;40.360;2023-04-26T12:15:31;98024.88;;;13.00;100.00
26487;BME280;14425;56.136;40.360;2023-04-26T12:18:08;98029.22;;;12.90;100.00
26487;BME280;14425;56.136;40.360;2023-04-26T12:20:41;98024.00;;;13.16;100.00
26487;BME280;14425;56.136;40.360;2023-04-26T12:23:16;98024.00;;;13.16;100.00
26487;BME280;14425;56.136;40.360;2023-04-26T12:25:55;98024.00;;;13.16;100.00
26487;BME280;14425;56.136;40.360;2023-04-26T12:28:22;98024.00;;;13.16;100.00
26487;BME280;14425;56.136;40.360;2023-04-26T12:30:49;98044.72;;;13.31;100.00
26487;BME280;14425;56.136;40.360;2023-04-26T12:33:15;98043.88;;;12.97;100.00
26487;BME280;14425;56.136;40.360;2023-04-26T12:35:41;98043.88;;;12.97;100.00
26487;BME280;14425;56.136;40.360;2023-04-26T12:38:07;98043.88;;;12.97;100.00
26487;BME280;14425;56.136;40.360;2023-04-26T12:40:33;98038.69;;;12.83;100.00
26487;BME280;14425;56.136;40.360;2023-04-26T12:42:59;98038.69;;;12.83;100.00
26487;BME280;14425;56.136;40.360;2023-04-26T12:45:25;98038.69;;;12.83;100.00
26487;BME280;14425;56.136;40.360;2023-04-26T12:47:54;98038.69;;;12.83;100.00
26487;BME280;14425;56.136;40.360;2023-04-26T12:50:20;98038.69;;;12.83;100.00
26487;BME280;14425;56.136;40.360;2023-04-26T12:52:46;98038.69;;;12.83;100.00
26487;BME280;14425;56.136;40.360;2023-04-26T12:55:13;98044.53;;;14.09;100.00